createdAt,value
2018-08-13T00:04:25.683Z,4.37
2018-08-13T00:09:33.546Z,3.90
2018-08-13T00:14:35.694Z,3.70
2018-08-13T00:19:37.878Z,9.00
2018-08-13T00:24:40.075Z,3.90
2018-08-13T00:29:48.288Z,3.63
2018-08-13T00:34:50.457Z,3.40
2018-08-13T00:39:52.802Z,9.67
2018-08-13T00:44:54.985Z,3.70
2018-08-13T00:49:57.130Z,3.30
2018-08-13T00:54:59.316Z,5.40
2018-08-13T01:00:01.567Z,7.03
2018-08-13T01:05:04.772Z,2.83
2018-08-13T01:10:09.727Z,4.30
2018-08-13T01:15:13.527Z,2.93
2018-08-13T01:20:17.889Z,4.57
2018-08-13T01:25:20.609Z,3.27
2018-08-13T01:30:22.754Z,3.33
2018-08-13T01:35:24.943Z,5.43
2018-08-13T01:40:27.123Z,2.70
2018-08-13T01:45:29.256Z,2.90
2018-08-13T01:50:31.421Z,3.10
2018-08-13T01:55:33.575Z,2.93
2018-08-13T02:00:35.792Z,2.97
2018-08-13T02:05:38.011Z,3.17
2018-08-13T02:10:40.226Z,3.17
2018-08-13T02:15:42.390Z,2.87
2018-08-13T02:20:44.584Z,2.63
2018-08-13T02:25:46.947Z,7.93
2018-08-13T02:30:49.078Z,3.27
2018-08-13T02:35:51.244Z,4.20
2018-08-13T02:40:53.403Z,6.40
2018-08-13T02:45:55.633Z,7.30
2018-08-13T02:50:57.789Z,6.77
2018-08-13T02:56:00.124Z,10.87
2018-08-13T03:01:02.341Z,7.03
2018-08-13T03:06:04.576Z,6.50
2018-08-13T03:11:06.751Z,6.97
2018-08-13T03:16:08.912Z,5.50
2018-08-13T03:21:11.093Z,6.07
2018-08-13T03:26:13.238Z,4.50
2018-08-13T03:31:15.473Z,7.10
2018-08-13T03:36:17.664Z,5.00
2018-08-13T03:41:19.848Z,3.50
2018-08-13T03:46:22.007Z,4.63
2018-08-13T03:51:24.133Z,3.87
2018-08-13T03:56:26.318Z,3.47
2018-08-13T04:01:28.557Z,6.77
2018-08-13T04:06:30.742Z,4.03
2018-08-13T04:11:32.941Z,4.87
2018-08-13T04:16:35.417Z,4.70
2018-08-13T04:21:37.581Z,3.27
2018-08-13T04:26:39.719Z,3.50
2018-08-13T04:31:41.864Z,4.57
2018-08-13T04:36:44.045Z,5.07
2018-08-13T04:41:46.173Z,4.90
2018-08-13T04:46:48.350Z,4.60
2018-08-13T04:51:50.492Z,3.73
2018-08-13T04:56:53.641Z,2.97
2018-08-13T05:01:55.859Z,8.23
2018-08-13T05:06:58.030Z,3.00
2018-08-13T05:12:00.215Z,2.90
2018-08-13T05:17:02.359Z,2.93
2018-08-13T05:22:04.515Z,2.90
2018-08-13T05:27:06.692Z,4.83
2018-08-13T05:32:08.908Z,3.03
2018-08-13T05:37:11.068Z,3.87
2018-08-13T05:42:13.212Z,1.80
2018-08-13T05:47:15.430Z,2.73
2018-08-13T05:52:17.619Z,5.83
2018-08-13T05:57:19.796Z,4.00
2018-08-13T06:02:22.020Z,2.47
2018-08-13T06:07:24.179Z,2.20
2018-08-13T06:12:26.309Z,2.97
2018-08-13T06:17:28.457Z,4.67
2018-08-13T06:22:30.629Z,3.17
2018-08-13T06:27:32.796Z,3.07
2018-08-13T06:32:34.962Z,3.63
2018-08-13T06:37:37.174Z,4.20
2018-08-13T06:42:39.422Z,3.80
2018-08-13T06:47:41.935Z,12.43
2018-08-13T06:52:44.369Z,2.80
2018-08-13T06:57:46.542Z,4.83
2018-08-13T07:02:48.735Z,4.33
2018-08-13T07:07:50.939Z,7.10
2018-08-13T07:12:53.092Z,4.70
2018-08-13T07:17:55.257Z,2.60
2018-08-13T07:22:57.433Z,5.70
2018-08-13T07:27:59.693Z,3.20
2018-08-13T07:33:01.825Z,4.10
2018-08-13T07:38:04.174Z,3.33
2018-08-13T07:43:06.370Z,2.60
2018-08-13T07:48:08.549Z,5.13
2018-08-13T07:53:10.696Z,3.60
2018-08-13T07:58:12.826Z,5.17
2018-08-13T08:03:15.018Z,2.93
2018-08-13T08:08:17.205Z,2.90
2018-08-13T08:13:19.402Z,3.30
2018-08-13T08:18:21.573Z,7.27
2018-08-13T08:23:23.795Z,2.53
2018-08-13T08:28:25.981Z,2.63
2018-08-13T08:33:28.306Z,2.90
2018-08-13T08:38:30.476Z,3.13
2018-08-13T08:43:32.687Z,2.77
2018-08-13T08:48:34.885Z,3.53
2018-08-13T08:53:37.140Z,3.03
2018-08-13T08:58:39.274Z,3.47
2018-08-13T09:03:41.526Z,3.83
2018-08-13T09:08:43.684Z,2.50
2018-08-13T09:13:45.840Z,3.37
2018-08-13T09:18:59.564Z,5.17
2018-08-13T09:24:13.831Z,2.33
2018-08-13T09:29:27.821Z,2.17
2018-08-13T09:34:39.310Z,2.30
2018-08-13T09:39:41.449Z,4.67
2018-08-13T09:44:43.672Z,2.37
2018-08-13T09:49:45.863Z,3.10
2018-08-13T09:54:48.019Z,3.73
2018-08-13T09:59:50.192Z,2.37
2018-08-13T10:04:52.375Z,2.40
2018-08-13T10:09:54.536Z,1.80
2018-08-13T10:14:56.712Z,1.90
2018-08-13T10:19:58.890Z,2.40
2018-08-13T10:25:00.559Z,2.63
2018-08-13T10:30:03.258Z,6.67
2018-08-13T10:35:05.960Z,6.93
2018-08-13T10:40:10.386Z,3.83
2018-08-13T10:45:12.621Z,4.53
2018-08-13T10:50:14.970Z,3.63
2018-08-13T10:55:17.159Z,5.23
2018-08-13T11:00:19.397Z,4.30
2018-08-13T11:05:21.714Z,6.53
2018-08-13T11:10:24.006Z,2.77
2018-08-13T11:15:26.143Z,2.80
2018-08-13T11:20:28.350Z,2.20
2018-08-13T11:25:30.538Z,2.80
2018-08-13T11:30:32.714Z,4.00
2018-08-13T11:35:34.919Z,4.10
2018-08-13T11:40:37.210Z,4.23
2018-08-13T11:45:39.407Z,4.90
2018-08-13T11:50:41.667Z,3.67
2018-08-13T11:55:43.860Z,2.63
2018-08-13T12:00:46.040Z,1.73
2018-08-13T12:05:48.264Z,5.03
2018-08-13T12:10:51.124Z,1.90
2018-08-13T12:15:53.316Z,4.87
2018-08-13T12:20:55.466Z,3.33
2018-08-13T12:25:57.679Z,1.20
2018-08-13T12:30:59.953Z,2.20
2018-08-13T12:36:02.142Z,2.30
2018-08-13T12:41:04.645Z,1.50
2018-08-13T12:46:07.670Z,2.23
2018-08-13T12:51:09.915Z,3.77
2018-08-13T12:56:12.122Z,5.03
2018-08-13T13:01:14.293Z,5.43
2018-08-13T13:06:16.558Z,5.13
2018-08-13T13:11:18.764Z,3.73
2018-08-13T13:16:20.961Z,1.60
2018-08-13T13:21:23.243Z,6.67
2018-08-13T13:26:25.449Z,3.10
2018-08-13T13:31:27.630Z,2.30
2018-08-13T13:36:29.841Z,8.93
2018-08-13T13:41:32.014Z,2.13
2018-08-13T13:46:34.237Z,4.00
2018-08-13T13:51:36.541Z,3.47
2018-08-13T13:56:38.825Z,2.90
2018-08-13T14:01:41.034Z,5.13
2018-08-13T14:06:43.329Z,4.30
2018-08-13T14:11:45.557Z,2.53
2018-08-13T14:16:47.714Z,3.57
2018-08-13T14:21:49.900Z,3.00
2018-08-13T14:26:52.110Z,3.70
2018-08-13T14:31:54.313Z,4.00
2018-08-13T14:36:56.496Z,2.23
2018-08-13T14:41:58.683Z,3.87
2018-08-13T14:47:00.873Z,2.80
2018-08-13T14:52:03.146Z,2.97
2018-08-13T14:57:05.451Z,3.63
2018-08-13T15:02:07.721Z,3.00
2018-08-13T15:07:09.990Z,4.63
2018-08-13T15:12:12.206Z,4.20
2018-08-13T15:17:14.514Z,2.57
2018-08-13T15:22:16.758Z,4.67
2018-08-13T15:27:19.050Z,4.00
2018-08-13T15:32:21.243Z,2.80
2018-08-13T15:37:23.494Z,2.13
2018-08-13T15:42:25.724Z,6.23
2018-08-13T15:47:27.932Z,30.30
2018-08-13T15:57:45.731Z,47.63
2018-08-13T16:02:48.251Z,44.50
2018-08-13T16:07:50.939Z,47.80
2018-08-13T16:12:54.215Z,32.07
2018-08-13T16:17:56.453Z,27.20
2018-08-13T16:22:58.679Z,35.93
2018-08-13T16:28:00.865Z,18.17
2018-08-13T16:33:03.110Z,16.90
2018-08-13T16:38:05.366Z,13.97
2018-08-13T16:43:07.554Z,9.80
2018-08-13T16:48:09.751Z,11.37
2018-08-13T16:53:12.014Z,12.40
2018-08-13T16:58:14.243Z,10.83
2018-08-13T17:03:16.464Z,4.77
2018-08-13T17:08:18.694Z,5.20
2018-08-13T17:13:20.977Z,8.23
2018-08-13T17:18:23.242Z,3.90
2018-08-13T17:23:25.455Z,6.40
2018-08-13T17:28:27.666Z,6.30
2018-08-13T17:33:30.203Z,5.50
2018-08-13T17:38:32.518Z,4.93
2018-08-13T17:43:34.765Z,5.70
2018-08-13T17:48:37.016Z,4.03
2018-08-13T17:53:39.249Z,4.90
2018-08-13T17:58:41.436Z,10.43
2018-08-13T18:03:43.664Z,4.20
2018-08-13T18:08:45.925Z,7.57
2018-08-13T18:13:48.227Z,3.80
2018-08-13T18:18:50.486Z,3.47
2018-08-13T18:23:52.770Z,2.93
2018-08-13T18:28:54.951Z,3.47
2018-08-13T18:33:57.216Z,4.23
2018-08-13T18:38:59.579Z,4.60
2018-08-13T18:44:01.806Z,3.20
2018-08-13T18:49:04.060Z,4.77
2018-08-13T18:54:06.297Z,2.80
2018-08-13T18:59:08.592Z,3.87
2018-08-13T19:04:11.187Z,4.27
2018-08-13T19:09:13.454Z,2.70
2018-08-13T19:14:15.740Z,4.60
2018-08-13T19:19:18.023Z,3.23
2018-08-13T19:24:20.296Z,7.13
2018-08-13T19:29:22.575Z,7.80
2018-08-13T19:34:24.783Z,4.60
2018-08-13T19:39:27.022Z,5.73
2018-08-13T19:44:29.314Z,5.90
2018-08-13T19:49:31.571Z,5.13
2018-08-13T19:54:33.801Z,3.63
2018-08-13T19:59:36.037Z,3.07
2018-08-13T20:04:38.368Z,7.63
2018-08-13T20:09:40.615Z,2.30
2018-08-13T20:14:42.835Z,3.43
2018-08-13T20:19:45.164Z,4.50
2018-08-13T20:24:47.309Z,5.57
2018-08-13T20:29:49.556Z,6.23
2018-08-13T20:34:51.763Z,4.37
2018-08-13T20:39:53.984Z,4.37
2018-08-13T20:44:56.238Z,5.50
2018-08-13T20:49:58.526Z,3.67
2018-08-13T20:55:00.795Z,5.40
2018-08-13T21:00:04.024Z,3.40
2018-08-13T21:05:07.304Z,9.73
2018-08-13T21:10:12.058Z,5.90
2018-08-13T21:15:15.027Z,4.87
2018-08-13T21:20:28.242Z,4.10
2018-08-13T21:25:30.584Z,4.63
2018-08-13T21:30:32.802Z,7.53
2018-08-13T21:35:35.002Z,5.97
2018-08-13T21:40:37.213Z,5.53
2018-08-13T21:45:39.458Z,5.27
2018-08-13T21:50:41.711Z,7.73
2018-08-13T21:55:43.894Z,9.93
2018-08-13T22:00:51.627Z,9.80
2018-08-13T22:05:53.951Z,8.80
2018-08-13T22:10:56.215Z,10.60
2018-08-13T22:15:58.459Z,13.83
2018-08-13T22:21:00.615Z,10.27
2018-08-13T22:26:02.940Z,10.10
2018-08-13T22:31:05.116Z,11.73
2018-08-13T22:36:07.329Z,13.10
2018-08-13T22:41:09.507Z,14.97
2018-08-13T22:46:11.713Z,12.73
2018-08-13T22:51:13.943Z,14.90
2018-08-13T22:56:16.147Z,15.30
2018-08-13T23:01:18.336Z,15.40
2018-08-13T23:06:20.571Z,14.77
2018-08-13T23:11:22.769Z,16.60
2018-08-13T23:16:24.950Z,15.93
2018-08-13T23:21:27.120Z,15.30
2018-08-13T23:26:29.303Z,17.43
2018-08-13T23:31:31.503Z,18.80
2018-08-13T23:36:33.707Z,17.67
2018-08-13T23:41:35.893Z,18.93
2018-08-13T23:46:38.143Z,19.93
2018-08-13T23:51:40.453Z,27.57
2018-08-13T23:56:42.678Z,27.27
